createdAt,value
2023-04-21T00:00:00.714Z,9.26
2023-04-21T00:00:24.082Z,9.25
2023-04-21T00:00:47.454Z,9.24
2023-04-21T00:01:12.914Z,9.24
2023-04-21T00:01:36.042Z,9.23
2023-04-21T00:01:59.854Z,9.22
2023-04-21T00:02:23.157Z,9.22
2023-04-21T00:02:47.298Z,9.21
2023-04-21T00:03:10.655Z,9.21
2023-04-21T00:03:37.982Z,9.19
2023-04-21T00:04:01.507Z,9.19
2023-04-21T00:04:25.186Z,9.17
2023-04-21T00:04:50.166Z,9.17
2023-04-21T00:05:14.175Z,9.16
2023-04-21T00:05:38.819Z,9.16
2023-04-21T00:06:02.265Z,9.16
2023-04-21T00:06:27.015Z,9.17
2023-04-21T00:07:16.302Z,9.17
2023-04-21T00:07:40.533Z,9.18
2023-04-21T00:08:03.858Z,9.20
2023-04-21T00:08:27.309Z,9.20
2023-04-21T00:08:50.459Z,9.22
2023-04-21T00:09:13.753Z,9.22
2023-04-21T00:09:38.770Z,9.23
2023-04-21T00:10:03.038Z,9.23
2023-04-21T00:10:26.536Z,9.23
2023-04-21T00:10:49.732Z,9.22
2023-04-21T00:11:15.231Z,9.21
2023-04-21T00:11:38.413Z,9.20
2023-04-21T00:12:01.755Z,9.19
2023-04-21T00:12:26.192Z,9.18
2023-04-21T00:12:49.259Z,9.16
2023-04-21T00:13:12.356Z,9.15
2023-04-21T00:13:36.364Z,9.13
2023-04-21T00:13:59.458Z,9.12
2023-04-21T00:14:22.483Z,9.11
2023-04-21T00:14:45.853Z,9.10
2023-04-21T00:15:09.459Z,9.10
2023-04-21T00:15:32.875Z,9.09
2023-04-21T00:15:56.193Z,9.08
2023-04-21T00:16:19.835Z,9.08
2023-04-21T00:16:43.003Z,9.08
2023-04-21T00:17:06.324Z,9.09
2023-04-21T00:17:29.628Z,9.10
2023-04-21T00:17:52.850Z,9.11
2023-04-21T00:18:16.487Z,9.13
2023-04-21T00:18:39.480Z,9.13
2023-04-21T00:19:07.233Z,9.15
2023-04-21T00:19:30.536Z,9.16
2023-04-21T00:19:54.843Z,9.17
2023-04-21T00:20:18.294Z,9.18
2023-04-21T00:20:43.026Z,9.17
2023-04-21T00:21:06.673Z,9.18
2023-04-21T00:21:31.111Z,9.17
2023-04-21T00:21:59.151Z,9.17
2023-04-21T00:22:22.772Z,9.15
2023-04-21T00:22:46.034Z,9.15
2023-04-21T00:23:11.227Z,9.14
2023-04-21T00:23:34.668Z,9.14
2023-04-21T00:23:57.957Z,9.12
2023-04-21T00:24:21.229Z,9.12
2023-04-21T00:24:44.569Z,9.11
2023-04-21T00:25:08.282Z,9.10
2023-04-21T00:25:31.770Z,9.09
2023-04-21T00:25:55.803Z,9.08
2023-04-21T00:26:19.017Z,9.07
2023-04-21T00:27:08.625Z,9.07
2023-04-21T00:27:32.045Z,9.07
2023-04-21T00:27:55.059Z,9.07
2023-04-21T00:28:18.267Z,9.08
2023-04-21T00:28:41.485Z,9.10
2023-04-21T00:29:04.600Z,9.10
2023-04-21T00:29:27.822Z,9.11
2023-04-21T00:29:50.930Z,9.11
2023-04-21T00:30:13.945Z,9.11
2023-04-21T00:30:37.765Z,9.11
2023-04-21T00:31:01.313Z,9.11
2023-04-21T00:31:24.664Z,9.12
2023-04-21T00:31:51.768Z,9.11
2023-04-21T00:32:15.135Z,9.10
2023-04-21T00:32:38.502Z,9.10
2023-04-21T00:33:01.716Z,9.09
2023-04-21T00:33:26.118Z,9.08
2023-04-21T00:33:51.487Z,9.07
2023-04-21T00:34:14.605Z,9.07
2023-04-21T00:34:37.606Z,9.05
2023-04-21T00:35:01.166Z,9.04
2023-04-21T00:35:24.446Z,9.03
2023-04-21T00:35:47.765Z,9.02
2023-04-21T00:36:10.982Z,9.01
2023-04-21T00:36:34.098Z,9.00
2023-04-21T00:36:57.313Z,8.99
2023-04-21T00:37:20.531Z,8.99
2023-04-21T00:37:43.746Z,8.99
2023-04-21T00:38:07.882Z,8.99
2023-04-21T00:38:32.638Z,8.99
2023-04-21T00:38:55.763Z,9.00
2023-04-21T00:39:19.133Z,9.01
2023-04-21T00:39:43.303Z,9.02
2023-04-21T00:40:07.233Z,9.03
2023-04-21T00:40:30.800Z,9.04
2023-04-21T00:40:53.979Z,9.05
2023-04-21T00:41:20.978Z,9.06
2023-04-21T00:42:20.909Z,9.06
2023-04-21T00:42:44.092Z,9.06
2023-04-21T00:43:07.793Z,9.04
2023-04-21T00:43:31.075Z,9.04
2023-04-21T00:44:20.362Z,9.02
2023-04-21T00:44:43.784Z,9.01
2023-04-21T00:45:07.524Z,8.98
2023-04-21T00:45:30.743Z,8.98
2023-04-21T00:45:53.946Z,8.96
2023-04-21T00:46:17.403Z,8.95
2023-04-21T00:46:41.357Z,8.94
2023-04-21T00:47:04.591Z,8.93
2023-04-21T00:47:28.190Z,8.93
2023-04-21T00:47:52.545Z,8.93
2023-04-21T00:48:15.903Z,8.92
2023-04-21T00:48:39.122Z,8.93
2023-04-21T00:49:03.970Z,8.94
2023-04-21T00:49:27.290Z,8.95
2023-04-21T00:49:50.352Z,8.96
2023-04-21T00:50:13.631Z,8.97
2023-04-21T00:50:37.145Z,8.99
2023-04-21T00:51:02.405Z,9.00
2023-04-21T00:51:26.955Z,9.01
2023-04-21T00:51:50.279Z,9.01
2023-04-21T00:52:14.201Z,9.02
2023-04-21T00:52:41.213Z,9.02
2023-04-21T00:53:04.524Z,9.01
2023-04-21T00:53:27.743Z,9.01
2023-04-21T00:53:51.058Z,9.00
2023-04-21T00:54:14.168Z,9.00
2023-04-21T00:54:37.334Z,8.99
2023-04-21T00:55:00.714Z,8.99
2023-04-21T00:55:24.431Z,8.98
2023-04-21T00:55:48.867Z,8.97
2023-04-21T00:56:12.399Z,8.97
2023-04-21T00:56:35.728Z,8.96
2023-04-21T00:56:59.777Z,8.95
2023-04-21T00:57:24.507Z,8.95
2023-04-21T00:57:49.180Z,8.94
2023-04-21T00:58:12.471Z,8.94
2023-04-21T00:58:37.015Z,8.95
2023-04-21T00:59:00.644Z,8.96
2023-04-21T00:59:24.095Z,8.97
2023-04-21T00:59:47.173Z,8.98
2023-04-21T01:00:10.814Z,9.00
2023-04-21T01:00:36.658Z,9.02
2023-04-21T01:01:00.772Z,9.03
2023-04-21T01:01:24.522Z,9.05
2023-04-21T01:01:47.691Z,9.07
2023-04-21T01:02:11.590Z,9.08
2023-04-21T01:02:38.551Z,9.07
2023-04-21T01:03:02.769Z,9.07
2023-04-21T01:03:26.686Z,9.08
2023-04-21T01:03:50.675Z,9.08
2023-04-21T01:04:13.985Z,9.06
2023-04-21T01:04:39.715Z,9.06
2023-04-21T01:05:04.432Z,9.04
2023-04-21T01:05:27.525Z,9.04
2023-04-21T01:05:51.077Z,9.03
2023-04-21T01:06:14.084Z,9.02
2023-04-21T01:06:37.604Z,9.02
2023-04-21T01:07:01.233Z,9.01
2023-04-21T01:07:25.989Z,9.00
2023-04-21T01:07:49.315Z,9.00
2023-04-21T01:08:13.373Z,8.99
2023-04-21T01:08:36.555Z,8.98
2023-04-21T01:08:59.972Z,8.97
2023-04-21T01:09:23.086Z,8.96
2023-04-21T01:09:46.198Z,8.95
2023-04-21T01:10:09.726Z,8.95
2023-04-21T01:10:33.667Z,8.96
2023-04-21T01:10:56.971Z,8.97
2023-04-21T01:11:19.922Z,8.98
2023-04-21T01:11:43.203Z,8.99
2023-04-21T01:12:07.455Z,9.00
2023-04-21T01:12:30.866Z,9.00
2023-04-21T01:12:55.310Z,9.01
2023-04-21T01:13:22.526Z,9.02
2023-04-21T01:13:45.830Z,9.03
2023-04-21T01:14:09.251Z,9.03
2023-04-21T01:14:34.314Z,9.03
2023-04-21T01:14:57.281Z,9.03
2023-04-21T01:15:20.841Z,9.03
2023-04-21T01:15:43.858Z,9.02
2023-04-21T01:16:08.295Z,9.02
2023-04-21T01:16:32.907Z,9.00
2023-04-21T01:16:57.032Z,9.00
2023-04-21T01:17:20.207Z,8.99
2023-04-21T01:17:44.250Z,8.97
2023-04-21T01:18:09.722Z,8.96
2023-04-21T01:18:33.526Z,8.95
2023-04-21T01:18:57.272Z,8.94
2023-04-21T01:19:20.560Z,8.92
2023-04-21T01:19:43.893Z,8.92
2023-04-21T01:20:11.007Z,8.92
2023-04-21T01:20:34.825Z,8.92
2023-04-21T01:20:58.779Z,8.92
2023-04-21T01:21:22.196Z,8.93
2023-04-21T01:21:45.294Z,8.95
2023-04-21T01:22:11.385Z,8.95
2023-04-21T01:22:34.388Z,8.96
2023-04-21T01:22:57.496Z,8.99
2023-04-21T01:23:21.431Z,9.00
2023-04-21T01:23:44.448Z,9.01
2023-04-21T01:24:07.971Z,9.02
2023-04-21T01:24:40.547Z,9.02
2023-04-21T01:25:03.919Z,9.02
2023-04-21T01:25:28.765Z,9.01
2023-04-21T01:25:52.384Z,9.01
2023-04-21T01:26:22.870Z,9.01
2023-04-21T01:26:49.566Z,9.00
2023-04-21T01:27:15.443Z,9.00
2023-04-21T01:27:38.403Z,8.99
2023-04-21T01:28:01.764Z,8.99
2023-04-21T01:28:25.287Z,8.98
2023-04-21T01:28:49.022Z,8.97
2023-04-21T01:29:12.238Z,8.97
2023-04-21T01:29:36.581Z,8.96
2023-04-21T01:29:59.783Z,8.95
2023-04-21T01:30:24.847Z,8.95
2023-04-21T01:30:48.167Z,8.94
2023-04-21T01:31:11.528Z,8.94
2023-04-21T01:31:34.643Z,8.95
2023-04-21T01:31:57.896Z,8.97
2023-04-21T01:32:28.045Z,8.98
2023-04-21T01:32:51.195Z,9.00
2023-04-21T01:33:14.461Z,9.01
2023-04-21T01:33:37.661Z,9.02
2023-04-21T01:34:03.613Z,9.04
2023-04-21T01:34:26.630Z,9.04
2023-04-21T01:34:49.956Z,9.05
2023-04-21T01:35:13.078Z,9.06
2023-04-21T01:35:36.377Z,9.06
2023-04-21T01:36:01.437Z,9.05
2023-04-21T01:36:24.849Z,9.04
2023-04-21T01:36:48.889Z,9.04
2023-04-21T01:37:12.632Z,9.04
2023-04-21T01:37:36.040Z,9.02
2023-04-21T01:37:59.460Z,9.02
2023-04-21T01:38:22.684Z,9.01
2023-04-21T01:38:46.815Z,9.01
2023-04-21T01:39:10.333Z,9.00
2023-04-21T01:39:33.565Z,9.00
2023-04-21T01:39:57.341Z,9.00
2023-04-21T01:40:20.819Z,8.99
2023-04-21T01:40:44.019Z,8.99
2023-04-21T01:41:07.145Z,8.98
2023-04-21T01:41:30.660Z,8.98
2023-04-21T01:41:55.818Z,8.98
2023-04-21T01:42:19.034Z,8.99
2023-04-21T01:42:43.396Z,9.01
2023-04-21T01:43:06.717Z,9.01
2023-04-21T01:43:30.626Z,9.03
2023-04-21T01:43:53.840Z,9.05
2023-04-21T01:44:17.060Z,9.06
2023-04-21T01:44:40.171Z,9.09
2023-04-21T01:45:03.491Z,9.10
2023-04-21T01:45:27.125Z,9.12
2023-04-21T01:45:50.393Z,9.12
2023-04-21T01:46:13.613Z,9.14
2023-04-21T01:46:36.968Z,9.14
2023-04-21T01:47:00.185Z,9.15
2023-04-21T01:47:48.175Z,9.15
2023-04-21T01:48:11.406Z,9.15
2023-04-21T01:48:36.946Z,9.15
2023-04-21T01:49:01.995Z,9.15
2023-04-21T01:49:25.312Z,9.13
2023-04-21T01:50:13.897Z,9.14
2023-04-21T01:50:38.646Z,9.14
2023-04-21T01:51:01.864Z,9.14
2023-04-21T01:51:27.837Z,9.14
2023-04-21T01:51:50.852Z,9.14
2023-04-21T01:52:14.070Z,9.14
2023-04-21T01:52:37.212Z,9.14
2023-04-21T01:53:00.401Z,9.14
2023-04-21T01:53:23.818Z,9.13
2023-04-21T01:53:46.932Z,9.13
2023-04-21T01:54:10.148Z,9.13
2023-04-21T01:54:33.161Z,9.14
2023-04-21T01:54:56.479Z,9.15
2023-04-21T01:55:20.003Z,9.16
2023-04-21T01:55:43.015Z,9.19
2023-04-21T01:56:06.635Z,9.20
2023-04-21T01:56:30.174Z,9.22
2023-04-21T01:56:53.867Z,9.23
2023-04-21T01:57:17.439Z,9.26
2023-04-21T01:57:40.735Z,9.27
2023-04-21T01:58:04.271Z,9.29
2023-04-21T01:58:27.335Z,9.30
2023-04-21T01:58:50.990Z,9.31
2023-04-21T01:59:14.213Z,9.31
2023-04-21T01:59:37.322Z,9.31
2023-04-21T02:00:00.544Z,9.30
2023-04-21T02:00:24.470Z,9.29
2023-04-21T02:00:47.691Z,9.28
2023-04-21T02:01:11.009Z,9.27
2023-04-21T02:01:36.295Z,9.25
2023-04-21T02:01:59.951Z,9.24
2023-04-21T02:02:23.347Z,9.23
2023-04-21T02:02:47.644Z,9.22
2023-04-21T02:03:11.239Z,9.21
2023-04-21T02:03:34.836Z,9.20
2023-04-21T02:03:58.424Z,9.18
2023-04-21T02:04:21.658Z,9.18
2023-04-21T02:04:44.965Z,9.17
2023-04-21T02:05:08.183Z,9.16
2023-04-21T02:05:32.422Z,9.15
2023-04-21T02:05:55.744Z,9.15
2023-04-21T02:06:18.865Z,9.15
2023-04-21T02:06:41.973Z,9.15
2023-04-21T02:07:05.184Z,9.15
2023-04-21T02:07:29.024Z,9.16
2023-04-21T02:07:52.129Z,9.17
2023-04-21T02:08:15.551Z,9.19
2023-04-21T02:08:39.380Z,9.19
2023-04-21T02:09:04.032Z,9.20
2023-04-21T02:09:53.638Z,9.21
2023-04-21T02:10:18.240Z,9.21
2023-04-21T02:10:41.291Z,9.20
2023-04-21T02:11:08.084Z,9.20
2023-04-21T02:11:31.310Z,9.19
2023-04-21T02:11:57.491Z,9.18
2023-04-21T02:12:20.605Z,9.17
2023-04-21T02:12:43.552Z,9.16
2023-04-21T02:13:06.727Z,9.14
2023-04-21T02:13:29.941Z,9.14
2023-04-21T02:13:53.771Z,9.13
2023-04-21T02:14:16.922Z,9.11
2023-04-21T02:14:40.309Z,9.10
2023-04-21T02:15:05.975Z,9.09
2023-04-21T02:15:29.350Z,9.08
2023-04-21T02:16:02.458Z,9.07
2023-04-21T02:16:33.260Z,9.06
2023-04-21T02:16:57.155Z,9.06
2023-04-21T02:17:20.367Z,9.06
2023-04-21T02:17:45.162Z,9.07
2023-04-21T02:18:08.642Z,9.08
2023-04-21T02:18:31.659Z,9.09
2023-04-21T02:18:55.181Z,9.10
2023-04-21T02:19:18.566Z,9.10
2023-04-21T02:19:42.118Z,9.11
2023-04-21T02:20:06.607Z,9.11
2023-04-21T02:20:29.679Z,9.11
2023-04-21T02:20:53.097Z,9.11
2023-04-21T02:21:16.126Z,9.10
2023-04-21T02:21:39.534Z,9.10
2023-04-21T02:22:02.539Z,9.09
2023-04-21T02:22:25.975Z,9.08
2023-04-21T02:22:49.297Z,9.07
2023-04-21T02:23:38.309Z,9.04
2023-04-21T02:24:01.384Z,9.03
2023-04-21T02:24:24.802Z,9.01
2023-04-21T02:24:49.924Z,9.01
2023-04-21T02:25:15.780Z,8.99
2023-04-21T02:25:39.363Z,8.98
2023-04-21T02:26:02.980Z,8.97
2023-04-21T02:26:29.122Z,8.96
2023-04-21T02:26:52.518Z,8.96
2023-04-21T02:27:16.917Z,8.96
2023-04-21T02:27:40.293Z,8.97
2023-04-21T02:28:03.619Z,8.98
2023-04-21T02:28:28.318Z,9.00
2023-04-21T02:28:52.951Z,9.02
2023-04-21T02:29:16.950Z,9.03
2023-04-21T02:29:41.057Z,9.05
2023-04-21T02:30:04.675Z,9.06
2023-04-21T02:30:28.185Z,9.08
2023-04-21T02:30:51.515Z,9.09
2023-04-21T02:31:15.147Z,9.09
2023-04-21T02:31:54.141Z,9.10
2023-04-21T02:32:26.022Z,9.10
2023-04-21T02:32:49.723Z,9.10
2023-04-21T02:33:13.197Z,9.10
2023-04-21T02:33:36.782Z,9.09
2023-04-21T02:34:00.650Z,9.08
2023-04-21T02:34:23.846Z,9.08
2023-04-21T02:34:46.936Z,9.07
2023-04-21T02:35:10.273Z,9.06
2023-04-21T02:35:34.744Z,9.06
2023-04-21T02:35:58.026Z,9.05
2023-04-21T02:36:21.848Z,9.03
2023-04-21T02:36:45.065Z,9.03
2023-04-21T02:37:08.388Z,9.02
2023-04-21T02:37:31.703Z,9.02
2023-04-21T02:37:54.819Z,9.01
2023-04-21T02:38:44.221Z,9.01
2023-04-21T02:39:07.338Z,9.02
2023-04-21T02:39:30.956Z,9.03
2023-04-21T02:39:54.073Z,9.04
2023-04-21T02:40:17.080Z,9.05
2023-04-21T02:40:41.219Z,9.07
2023-04-21T02:41:04.333Z,9.08
2023-04-21T02:41:27.492Z,9.08
2023-04-21T02:41:50.662Z,9.08
2023-04-21T02:42:13.681Z,9.08
2023-04-21T02:42:36.803Z,9.07
2023-04-21T02:43:00.312Z,9.07
2023-04-21T02:43:23.531Z,9.07
2023-04-21T02:43:46.548Z,9.06
2023-04-21T02:44:10.382Z,9.04
2023-04-21T02:44:34.523Z,9.03
2023-04-21T02:44:57.721Z,9.03
2023-04-21T02:45:20.940Z,9.02
2023-04-21T02:45:43.949Z,9.01
2023-04-21T02:46:08.577Z,9.00
2023-04-21T02:46:31.851Z,8.98
2023-04-21T02:46:55.658Z,8.97
2023-04-21T02:47:18.969Z,8.96
2023-04-21T02:47:41.989Z,8.95
2023-04-21T02:48:05.729Z,8.95
2023-04-21T02:48:28.920Z,8.94
2023-04-21T02:48:52.156Z,8.94
2023-04-21T02:49:15.349Z,8.94
2023-04-21T02:49:42.258Z,8.94
2023-04-21T02:50:05.975Z,8.95
2023-04-21T02:50:30.316Z,8.96
2023-04-21T02:50:53.502Z,8.99
2023-04-21T02:51:42.641Z,9.00
2023-04-21T02:52:06.050Z,9.03
2023-04-21T02:52:29.366Z,9.05
2023-04-21T02:52:52.584Z,9.06
2023-04-21T02:53:16.535Z,9.07
2023-04-21T02:53:40.558Z,9.08
2023-04-21T02:54:03.564Z,9.08
2023-04-21T02:54:26.780Z,9.08
2023-04-21T02:55:15.154Z,9.07
2023-04-21T02:55:38.487Z,9.05
2023-04-21T02:56:04.769Z,9.05
2023-04-21T02:56:27.867Z,9.02
2023-04-21T02:56:50.996Z,9.01
2023-04-21T02:57:14.100Z,9.00
2023-04-21T02:57:37.544Z,9.00
2023-04-21T02:58:00.844Z,8.98
2023-04-21T02:58:24.465Z,8.97
2023-04-21T02:58:47.574Z,8.96
2023-04-21T02:59:11.916Z,8.95
2023-04-21T02:59:36.159Z,8.94
2023-04-21T02:59:59.574Z,8.94
2023-04-21T03:00:22.696Z,8.93
2023-04-21T03:00:46.129Z,8.93
2023-04-21T03:01:09.669Z,8.93
2023-04-21T03:01:33.062Z,8.94
2023-04-21T03:01:57.191Z,8.94
2023-04-21T03:02:20.670Z,8.94
2023-04-21T03:02:44.494Z,8.95
2023-04-21T03:03:07.998Z,8.95
2023-04-21T03:03:32.396Z,8.96
2023-04-21T03:03:55.988Z,8.97
2023-04-21T03:04:20.099Z,8.97
2023-04-21T03:04:43.335Z,8.98
2023-04-21T03:05:06.626Z,8.97
2023-04-21T03:05:29.819Z,8.97
2023-04-21T03:06:18.400Z,8.97
2023-04-21T03:06:42.238Z,8.95
2023-04-21T03:07:05.659Z,8.94
2023-04-21T03:07:29.892Z,8.92
2023-04-21T03:07:53.215Z,8.91
2023-04-21T03:08:16.426Z,8.90
2023-04-21T03:08:39.644Z,8.89
2023-04-21T03:09:02.964Z,8.87
2023-04-21T03:09:26.178Z,8.86
2023-04-21T03:09:49.450Z,8.86
2023-04-21T03:10:12.524Z,8.85
2023-04-21T03:10:37.077Z,8.84
2023-04-21T03:11:00.377Z,8.83
2023-04-21T03:11:24.424Z,8.83
2023-04-21T03:11:49.884Z,8.83
2023-04-21T03:12:14.624Z,8.83
2023-04-21T03:12:37.786Z,8.83
2023-04-21T03:13:00.852Z,8.84
2023-04-21T03:13:24.581Z,8.85
2023-04-21T03:13:47.591Z,8.86
2023-04-21T03:14:10.805Z,8.87
2023-04-21T03:14:34.025Z,8.88
2023-04-21T03:14:57.750Z,8.89
2023-04-21T03:15:21.276Z,8.89
2023-04-21T03:16:10.085Z,8.89
2023-04-21T03:16:33.216Z,8.90
2023-04-21T03:16:56.761Z,8.90
2023-04-21T03:17:20.163Z,8.89
2023-04-21T03:17:43.768Z,8.88
2023-04-21T03:18:07.102Z,8.88
2023-04-21T03:18:30.690Z,8.87
2023-04-21T03:18:53.911Z,8.85
2023-04-21T03:19:17.287Z,8.83
2023-04-21T03:19:41.074Z,8.81
2023-04-21T03:20:08.324Z,8.80
2023-04-21T03:20:32.288Z,8.78
2023-04-21T03:21:01.645Z,8.76
2023-04-21T03:21:24.870Z,8.74
2023-04-21T03:21:48.079Z,8.73
2023-04-21T03:22:11.701Z,8.71
2023-04-21T03:22:40.850Z,8.71
2023-04-21T03:23:04.074Z,8.70
2023-04-21T03:23:27.184Z,8.70
2023-04-21T03:23:50.266Z,8.70
2023-04-21T03:24:13.626Z,8.71
2023-04-21T03:24:36.730Z,8.72
2023-04-21T03:25:00.049Z,8.72
2023-04-21T03:25:23.189Z,8.73
2023-04-21T03:25:46.339Z,8.74
2023-04-21T03:26:09.491Z,8.74
2023-04-21T03:26:32.523Z,8.75
2023-04-21T03:26:57.219Z,8.76
2023-04-21T03:27:20.373Z,8.76
2023-04-21T03:28:08.847Z,8.75
2023-04-21T03:28:32.476Z,8.74
2023-04-21T03:28:55.907Z,8.73
2023-04-21T03:29:19.138Z,8.72
2023-04-21T03:29:42.428Z,8.71
2023-04-21T03:30:06.914Z,8.71
2023-04-21T03:30:30.711Z,8.70
2023-04-21T03:30:54.031Z,8.69
2023-04-21T03:31:17.335Z,8.69
2023-04-21T03:31:40.361Z,8.68
2023-04-21T03:32:03.946Z,8.67
2023-04-21T03:32:27.437Z,8.66
2023-04-21T03:32:51.175Z,8.65
2023-04-21T03:33:39.502Z,8.65
2023-04-21T03:34:02.641Z,8.66
2023-04-21T03:34:26.650Z,8.67
2023-04-21T03:34:52.732Z,8.68
2023-04-21T03:35:16.662Z,8.69
2023-04-21T03:35:39.775Z,8.70
2023-04-21T03:36:04.018Z,8.72
2023-04-21T03:36:27.539Z,8.72
2023-04-21T03:36:50.756Z,8.73
2023-04-21T03:37:14.075Z,8.74
2023-04-21T03:37:37.294Z,8.74
2023-04-21T03:38:03.677Z,8.74
2023-04-21T03:38:29.042Z,8.74
2023-04-21T03:38:52.365Z,8.73
2023-04-21T03:39:20.091Z,8.72
2023-04-21T03:39:44.014Z,8.71
2023-04-21T03:40:08.863Z,8.70
2023-04-21T03:40:32.176Z,8.69
2023-04-21T03:40:55.394Z,8.68
2023-04-21T03:41:18.720Z,8.68
2023-04-21T03:41:41.930Z,8.67
2023-04-21T03:42:05.860Z,8.66
2023-04-21T03:42:30.266Z,8.65
2023-04-21T03:42:53.466Z,8.65
2023-04-21T03:43:16.636Z,8.65
2023-04-21T03:43:39.802Z,8.65
2023-04-21T03:44:03.198Z,8.66
2023-04-21T03:44:27.329Z,8.67
2023-04-21T03:44:50.524Z,8.68
2023-04-21T03:45:13.842Z,8.69
2023-04-21T03:45:37.212Z,8.70
2023-04-21T03:46:00.326Z,8.71
2023-04-21T03:46:23.721Z,8.71
2023-04-21T03:46:46.815Z,8.72
2023-04-21T03:47:10.050Z,8.73
2023-04-21T03:47:58.562Z,8.73
2023-04-21T03:48:21.930Z,8.73
2023-04-21T03:48:45.757Z,8.72
2023-04-21T03:49:08.792Z,8.71
2023-04-21T03:49:34.130Z,8.70
2023-04-21T03:49:57.143Z,8.70
2023-04-21T03:50:20.511Z,8.68
2023-04-21T03:50:43.777Z,8.68
2023-04-21T03:51:06.894Z,8.67
2023-04-21T03:51:32.563Z,8.66
2023-04-21T03:51:55.575Z,8.65
2023-04-21T03:52:18.695Z,8.64
2023-04-21T03:52:41.964Z,8.64
2023-04-21T03:53:05.124Z,8.64
2023-04-21T03:53:28.344Z,8.64
2023-04-21T03:53:51.658Z,8.65
2023-04-21T03:54:14.878Z,8.66
2023-04-21T03:54:38.091Z,8.67
2023-04-21T03:55:01.713Z,8.69
2023-04-21T03:55:24.935Z,8.69
2023-04-21T03:55:50.223Z,8.70
2023-04-21T03:56:13.318Z,8.71
2023-04-21T03:56:36.431Z,8.71
2023-04-21T03:56:59.559Z,8.71
2023-04-21T03:57:22.655Z,8.71
2023-04-21T03:57:45.868Z,8.71
2023-04-21T03:58:09.019Z,8.71
2023-04-21T03:58:32.104Z,8.70
2023-04-21T03:58:55.621Z,8.69
2023-04-21T03:59:19.016Z,8.69
2023-04-21T03:59:42.151Z,8.68
2023-04-21T04:00:05.784Z,8.67
2023-04-21T04:00:35.952Z,8.66
2023-04-21T04:00:59.168Z,8.65
2023-04-21T04:01:22.181Z,8.64
2023-04-21T04:01:45.232Z,8.64
2023-04-21T04:02:08.497Z,8.63
2023-04-21T04:02:31.840Z,8.63
2023-04-21T04:02:55.398Z,8.62
2023-04-21T04:03:20.509Z,8.62
2023-04-21T04:03:45.967Z,8.63
2023-04-21T04:04:09.479Z,8.64
2023-04-21T04:04:32.962Z,8.65
2023-04-21T04:04:56.788Z,8.66
2023-04-21T04:05:20.072Z,8.67
2023-04-21T04:05:43.969Z,8.68
2023-04-21T04:06:07.832Z,8.69
2023-04-21T04:06:33.303Z,8.70
2023-04-21T04:06:56.300Z,8.70
2023-04-21T04:07:19.425Z,8.70
2023-04-21T04:07:42.619Z,8.70
2023-04-21T04:08:06.675Z,8.69
2023-04-21T04:08:30.103Z,8.68
2023-04-21T04:08:53.229Z,8.67
2023-04-21T04:09:16.436Z,8.66
2023-04-21T04:09:40.000Z,8.65
2023-04-21T04:10:03.206Z,8.64
2023-04-21T04:10:27.096Z,8.63
2023-04-21T04:10:50.601Z,8.62
2023-04-21T04:11:13.633Z,8.62
2023-04-21T04:11:36.851Z,8.61
2023-04-21T04:12:00.071Z,8.60
2023-04-21T04:12:23.180Z,8.60
2023-04-21T04:12:46.503Z,8.60
2023-04-21T04:13:09.928Z,8.60
2023-04-21T04:13:33.134Z,8.60
2023-04-21T04:13:56.247Z,8.61
2023-04-21T04:14:19.461Z,8.61
2023-04-21T04:14:42.620Z,8.62
2023-04-21T04:15:06.412Z,8.63
2023-04-21T04:15:30.452Z,8.63
2023-04-21T04:15:53.738Z,8.65
2023-04-21T04:16:17.014Z,8.66
2023-04-21T04:16:40.194Z,8.66
2023-04-21T04:17:03.636Z,8.68
2023-04-21T04:17:27.062Z,8.69
2023-04-21T04:17:50.443Z,8.69
2023-04-21T04:18:13.474Z,8.69
2023-04-21T04:18:36.792Z,8.69
2023-04-21T04:18:59.901Z,8.69
2023-04-21T04:19:23.118Z,8.69
2023-04-21T04:19:46.436Z,8.68
2023-04-21T04:20:34.507Z,8.67
2023-04-21T04:20:57.717Z,8.65
2023-04-21T04:21:21.044Z,8.65
2023-04-21T04:21:44.270Z,8.65
2023-04-21T04:22:07.779Z,8.65
2023-04-21T04:22:30.893Z,8.64
2023-04-21T04:22:54.111Z,8.64
2023-04-21T04:23:17.326Z,8.64
2023-04-21T04:23:40.545Z,8.65
2023-04-21T04:24:05.494Z,8.65
2023-04-21T04:24:28.919Z,8.65
2023-04-21T04:24:53.363Z,8.66
2023-04-21T04:25:17.193Z,8.67
2023-04-21T04:25:40.512Z,8.68
2023-04-21T04:26:05.826Z,8.69
2023-04-21T04:26:29.601Z,8.71
2023-04-21T04:26:54.354Z,8.72
2023-04-21T04:27:18.179Z,8.73
2023-04-21T04:28:07.685Z,8.74
2023-04-21T04:28:31.308Z,8.75
2023-04-21T04:28:56.715Z,8.75
2023-04-21T04:29:20.340Z,8.75
2023-04-21T04:29:44.130Z,8.75
2023-04-21T04:30:07.659Z,8.75
2023-04-21T04:30:33.326Z,8.74
2023-04-21T04:30:56.656Z,8.75
2023-04-21T04:31:20.012Z,8.71
2023-04-21T04:31:43.319Z,8.75
2023-04-21T04:32:06.905Z,8.75
2023-04-21T04:32:31.685Z,8.74
2023-04-21T04:32:55.097Z,8.75
2023-04-21T04:33:18.093Z,8.76
2023-04-21T04:33:42.774Z,8.76
2023-04-21T04:34:06.925Z,8.77
2023-04-21T04:34:30.807Z,8.78
2023-04-21T04:34:56.032Z,8.79
2023-04-21T04:35:19.591Z,8.80
2023-04-21T04:35:42.701Z,8.81
2023-04-21T04:36:06.053Z,8.82
2023-04-21T04:36:29.747Z,8.83
2023-04-21T04:36:53.994Z,8.84
2023-04-21T04:37:17.624Z,8.84
2023-04-21T04:37:41.377Z,8.84
2023-04-21T04:38:04.660Z,8.84
2023-04-21T04:38:28.590Z,8.84
2023-04-21T04:38:51.815Z,8.82
2023-04-21T04:39:16.625Z,8.82
2023-04-21T04:39:39.676Z,8.81
2023-04-21T04:40:05.753Z,8.81
2023-04-21T04:40:30.097Z,8.80
2023-04-21T04:40:53.819Z,8.79
2023-04-21T04:41:16.797Z,8.79
2023-04-21T04:41:40.050Z,8.78
2023-04-21T04:42:03.980Z,8.78
2023-04-21T04:42:27.089Z,8.78
2023-04-21T04:42:51.602Z,8.78
2023-04-21T04:43:15.372Z,8.79
2023-04-21T04:43:39.607Z,8.79
2023-04-21T04:44:05.175Z,8.80
2023-04-21T04:44:28.454Z,8.82
2023-04-21T04:44:54.779Z,8.83
2023-04-21T04:45:21.574Z,8.85
2023-04-21T04:45:45.646Z,8.87
2023-04-21T04:46:09.778Z,8.88
2023-04-21T04:46:33.326Z,8.89
2023-04-21T04:46:57.332Z,8.90
2023-04-21T04:47:20.895Z,8.90
2023-04-21T04:47:44.686Z,8.91
2023-04-21T04:48:08.546Z,8.90
2023-04-21T04:48:32.314Z,8.91
2023-04-21T04:48:55.326Z,8.90
2023-04-21T04:49:18.543Z,8.90
2023-04-21T04:49:41.761Z,8.90
2023-04-21T04:50:06.036Z,8.89
2023-04-21T04:50:29.120Z,8.89
2023-04-21T04:50:52.438Z,8.89
2023-04-21T04:51:16.471Z,8.88
2023-04-21T04:51:39.691Z,8.88
2023-04-21T04:52:28.434Z,8.88
2023-04-21T04:52:51.688Z,8.87
2023-04-21T04:53:14.894Z,8.87
2023-04-21T04:53:38.164Z,8.87
2023-04-21T04:54:01.335Z,8.88
2023-04-21T04:54:25.370Z,8.89
2023-04-21T04:54:48.480Z,8.89
2023-04-21T04:55:11.601Z,8.91
2023-04-21T04:55:34.911Z,8.92
2023-04-21T04:56:01.417Z,8.93
2023-04-21T04:56:24.829Z,8.94
2023-04-21T04:56:47.944Z,8.95
2023-04-21T04:57:11.088Z,8.97
2023-04-21T04:57:34.157Z,8.96
2023-04-21T04:57:57.483Z,8.97
2023-04-21T04:58:20.806Z,8.97
2023-04-21T04:58:46.688Z,8.96
2023-04-21T04:59:09.688Z,8.95
2023-04-21T04:59:32.804Z,8.94
2023-04-21T04:59:56.393Z,8.93
2023-04-21T05:00:20.361Z,8.93
2023-04-21T05:00:43.373Z,8.93
2023-04-21T05:01:13.647Z,8.92
2023-04-21T05:01:38.372Z,8.92
2023-04-21T05:02:01.533Z,8.92
2023-04-21T05:02:25.368Z,8.92
2023-04-21T05:02:48.992Z,8.93
2023-04-21T05:03:12.396Z,8.93
2023-04-21T05:03:35.857Z,8.95
2023-04-21T05:03:59.332Z,8.97
2023-04-21T05:04:23.433Z,8.99
2023-04-21T05:04:46.935Z,9.00
2023-04-21T05:05:10.373Z,9.01
2023-04-21T05:05:33.844Z,9.02
2023-04-21T05:05:57.770Z,9.03
2023-04-21T05:06:21.288Z,9.05
2023-04-21T05:06:44.505Z,9.06
2023-04-21T05:07:08.028Z,9.05
2023-04-21T05:07:31.245Z,9.06
2023-04-21T05:07:54.382Z,9.05
2023-04-21T05:08:18.233Z,9.05
2023-04-21T05:08:41.813Z,9.03
2023-04-21T05:09:05.128Z,9.02
2023-04-21T05:09:28.170Z,9.01
2023-04-21T05:09:51.468Z,8.99
2023-04-21T05:10:14.679Z,8.96
2023-04-21T05:10:38.105Z,8.95
2023-04-21T05:11:01.332Z,8.93
2023-04-21T05:11:24.737Z,8.92
2023-04-21T05:11:48.097Z,8.91
2023-04-21T05:12:11.428Z,8.89
2023-04-21T05:12:34.603Z,8.89
2023-04-21T05:12:57.804Z,8.88
2023-04-21T05:13:20.927Z,8.87
2023-04-21T05:13:44.139Z,8.87
2023-04-21T05:14:07.481Z,8.87
2023-04-21T05:14:31.083Z,8.87
2023-04-21T05:14:54.314Z,8.88
2023-04-21T05:15:17.822Z,8.89
2023-04-21T05:15:41.042Z,8.89
2023-04-21T05:16:04.695Z,8.91
2023-04-21T05:16:27.961Z,8.91
2023-04-21T05:16:51.209Z,8.91
2023-04-21T05:17:14.353Z,8.92
2023-04-21T05:17:37.691Z,8.91
2023-04-21T05:18:01.004Z,8.91
2023-04-21T05:18:24.679Z,8.90
2023-04-21T05:19:13.362Z,8.89
2023-04-21T05:19:37.747Z,8.89
2023-04-21T05:20:00.841Z,8.87
2023-04-21T05:20:24.442Z,8.86
2023-04-21T05:20:47.760Z,8.85
2023-04-21T05:21:10.885Z,8.83
2023-04-21T05:21:34.270Z,8.83
2023-04-21T05:22:03.240Z,8.81
2023-04-21T05:22:26.563Z,8.80
2023-04-21T05:22:49.571Z,8.80
2023-04-21T05:23:12.927Z,8.80
2023-04-21T05:23:36.102Z,8.80
2023-04-21T05:23:59.325Z,8.81
2023-04-21T05:24:24.399Z,8.81
2023-04-21T05:24:47.599Z,8.82
2023-04-21T05:25:11.641Z,8.83